Time;durP1;ratioP1;P1;durP2;ratioP2;P2;SDS_P1;SDS_P2;PMS_P1;PMS_P2;Temp;Humidity;BMP_temperature;BMP_pressure;BME280_temperature;BME280_humidity;BME280_pressure;Samples;Min_cycle;Max_cycle;Signal;HPM_P1;HPM_P2
2024/04/19 00:01:30;;;;;;;14.40;10.90;;;;;;;1.92;91.99;96244.01;108589;1275;24434;-71
2024/04/19 00:04:00;;;;;;;15.20;11.00;;;;;;;1.94;92.12;96243.83;108463;1269;23242;-71
2024/04/19 00:06:31;;;;;;;15.30;13.00;;;;;;;1.97;91.99;96241.38;108531;1272;22529;-71
2024/04/19 00:09:01;;;;;;;16.60;12.50;;;;;;;1.98;92.08;96238.60;108543;1275;22545;-71
2024/04/19 00:11:32;;;;;;;16.80;12.20;;;;;;;1.98;91.93;96238.71;108572;1273;22570;-71
2024/04/19 00:14:02;;;;;;;13.90;11.70;;;;;;;1.99;92.13;96236.95;108540;1271;25244;-71
2024/04/19 00:16:32;;;;;;;15.40;13.40;;;;;;;2.00;92.12;96238.27;108603;1275;22533;-71
2024/04/19 00:19:02;;;;;;;12.90;11.00;;;;;;;1.98;92.07;96235.42;108577;1275;23311;-71
2024/04/19 00:21:33;;;;;;;15.00;12.20;;;;;;;2.00;92.21;96233.73;108598;1275;22644;-71
2024/04/19 00:24:03;;;;;;;13.30;11.60;;;;;;;1.98;92.15;96237.63;108524;1275;22585;-70
2024/04/19 00:26:33;;;;;;;13.20;11.00;;;;;;;1.97;92.48;96233.86;108577;1275;22568;-71
2024/04/19 00:29:04;;;;;;;13.20;10.90;;;;;;;1.90;92.68;96242.41;108537;1275;22521;-71
2024/04/19 00:31:34;;;;;;;12.30;10.70;;;;;;;1.84;92.83;96242.77;108576;1275;22550;-71
2024/04/19 00:34:07;;;;;;;12.20;10.20;;;;;;;1.84;92.91;96244.43;108556;1275;24012;-71
2024/04/19 00:36:37;;;;;;;12.70;10.80;;;;;;;1.86;92.91;96245.73;108586;1275;22528;-71
2024/04/19 00:39:07;;;;;;;12.70;10.80;;;;;;;1.86;92.97;96244.23;108560;1274;25452;-71
2024/04/19 00:41:38;;;;;;;13.70;11.90;;;;;;;1.87;92.87;96245.70;108617;1275;23001;-71
2024/04/19 00:44:08;;;;;;;14.00;10.30;;;;;;;1.87;92.97;96244.17;108554;1268;24148;-71
2024/04/19 00:46:41;;;;;;;15.80;12.40;;;;;;;1.89;92.75;96245.69;108570;1275;22517;-71
2024/04/19 00:49:11;;;;;;;18.00;13.30;;;;;;;1.91;92.68;96241.86;108575;1275;22519;-71
2024/04/19 00:51:43;;;;;;;16.30;11.50;;;;;;;1.92;92.82;96241.39;108566;1273;23062;-71
2024/04/19 00:54:13;;;;;;;16.50;12.40;;;;;;;1.91;92.89;96241.42;108571;1275;22564;-71
2024/04/19 00:56:44;;;;;;;14.80;11.60;;;;;;;1.87;92.72;96239.17;108592;1268;22525;-71
2024/04/19 00:59:15;;;;;;;14.50;11.40;;;;;;;1.85;92.67;96241.39;108571;1269;24235;-71
2024/04/19 01:01:46;;;;;;;14.90;11.20;;;;;;;1.85;92.76;96242.89;108561;1275;22685;-71
2024/04/19 01:04:17;;;;;;;13.10;11.10;;;;;;;1.87;92.62;96242.71;108505;1275;23540;-71
2024/04/19 01:06:47;;;;;;;13.90;10.90;;;;;;;1.87;92.64;96240.69;108607;1275;22518;-71
2024/04/19 01:09:17;;;;;;;14.10;11.30;;;;;;;1.86;92.38;96241.18;108582;1275;22522;-71
2024/04/19 01:11:48;;;;;;;15.70;11.40;;;;;;;1.83;92.35;96242.07;108579;1275;25373;-71
2024/04/19 01:14:19;;;;;;;13.00;11.00;;;;;;;1.83;92.34;96241.86;108547;1275;25285;-71
2024/04/19 01:16:49;;;;;;;13.40;11.30;;;;;;;1.84;92.28;96239.58;108578;1275;22533;-71
2024/04/19 01:19:19;;;;;;;15.70;11.70;;;;;;;1.85;92.43;96240.23;108557;1271;22525;-71
2024/04/19 01:21:50;;;;;;;13.50;10.90;;;;;;;1.87;92.34;96238.02;108606;1275;22533;-71
2024/04/19 01:24:32;;;;;;;13.30;9.60;;;;;;;1.89;92.19;96241.91;108552;1257;24226;-71
2024/04/19 01:27:02;;;;;;;14.40;10.70;;;;;;;1.90;92.32;96240.64;108573;1275;22530;-71
2024/04/19 01:29:33;;;;;;;13.70;9.50;;;;;;;1.92;92.37;96237.46;108602;1275;22525;-71
2024/04/19 01:32:04;;;;;;;16.60;12.10;;;;;;;1.95;92.24;96235.82;108563;1275;22520;-71
2024/04/19 01:34:34;;;;;;;15.60;11.60;;;;;;;1.97;92.30;96239.01;108547;1275;22546;-71
2024/04/19 01:37:05;;;;;;;16.20;11.00;;;;;;;1.98;92.31;96237.23;108585;1275;25057;-71
2024/04/19 01:39:35;;;;;;;15.80;11.30;;;;;;;1.99;92.39;96234.55;108577;1275;22562;-71
2024/04/19 01:42:06;;;;;;;16.00;11.90;;;;;;;2.03;92.61;96235.19;108615;1275;24247;-71
2024/04/19 01:44:37;;;;;;;15.20;11.10;;;;;;;2.04;92.49;96233.63;108572;1271;22530;-71
2024/04/19 01:47:07;;;;;;;13.90;9.90;;;;;;;2.03;92.50;96235.66;108555;1275;22548;-70
2024/04/19 01:49:39;;;;;;;13.60;10.60;;;;;;;2.01;92.73;96236.40;108585;1275;22558;-71
2024/04/19 01:52:09;;;;;;;12.80;8.50;;;;;;;2.02;92.91;96236.95;108609;1275;25339;-71
2024/04/19 01:54:39;;;;;;;15.70;11.30;;;;;;;2.03;92.98;96239.27;108526;1272;22530;-71
2024/04/19 01:57:09;;;;;;;14.50;10.20;;;;;;;2.02;92.85;96238.10;108539;1276;22620;-71
2024/04/19 01:59:40;;;;;;;14.50;8.70;;;;;;;2.01;92.86;96234.58;108544;1268;22549;-71
2024/04/19 02:02:10;;;;;;;11.10;8.30;;;;;;;1.98;92.92;96233.40;108580;1275;22555;-71
2024/04/19 02:04:40;;;;;;;13.90;9.90;;;;;;;1.97;93.00;96231.37;108504;1269;25140;-71
2024/04/19 02:07:11;;;;;;;11.70;9.00;;;;;;;1.95;93.06;96236.54;108577;1275;22628;-71
2024/04/19 02:09:41;;;;;;;14.90;10.20;;;;;;;1.94;93.01;96235.48;108581;1275;22713;-71
2024/04/19 02:12:11;;;;;;;11.10;8.20;;;;;;;1.93;93.20;96232.93;108579;1275;22523;-71
2024/04/19 02:14:42;;;;;;;12.70;10.00;;;;;;;1.92;93.23;96227.77;108537;1269;22874;-71
2024/04/19 02:17:12;;;;;;;11.10;8.80;;;;;;;1.92;93.07;96228.90;108585;1275;22979;-71
2024/04/19 02:19:43;;;;;;;11.40;8.60;;;;;;;1.90;93.16;96228.66;108630;1275;22525;-71
2024/04/19 02:22:14;;;;;;;9.10;6.40;;;;;;;1.87;93.20;96228.20;108571;1275;22530;-71
2024/04/19 02:24:44;;;;;;;9.90;7.70;;;;;;;1.87;93.11;96231.48;108563;1269;26501;-71
2024/04/19 02:30:52;;;;;;;10.30;7.90;;;;;;;1.90;93.00;96231.75;108566;1269;22531;-71
2024/04/19 02:32:58;;;;;;;10.40;8.00;;;;;;;1.87;92.83;96230.17;108553;1271;26873;-71
2024/04/19 02:35:29;;;;;;;9.40;8.00;;;;;;;1.85;92.54;96225.39;108604;1271;22554;-71
2024/04/19 02:38:00;;;;;;;11.70;8.30;;;;;;;1.83;92.65;96227.27;108542;1269;22533;-71
2024/04/19 02:40:30;;;;;;;10.50;8.20;;;;;;;1.80;92.33;96224.59;108597;1275;22539;-71
2024/04/19 02:43:01;;;;;;;10.20;8.00;;;;;;;1.75;92.44;96222.00;108570;1275;23792;-71
2024/04/19 02:45:31;;;;;;;8.60;7.10;;;;;;;1.73;92.27;96222.48;108595;1275;25427;-71
2024/04/19 02:48:01;;;;;;;9.70;7.00;;;;;;;1.71;92.24;96217.23;108593;1269;22531;-71
2024/04/19 02:50:32;;;;;;;10.30;8.00;;;;;;;1.70;92.25;96213.50;108551;1275;24279;-71
2024/04/19 02:53:02;;;;;;;9.10;6.70;;;;;;;1.71;92.17;96214.40;108558;1275;22555;-71
2024/04/19 02:55:32;;;;;;;8.90;6.90;;;;;;;1.73;92.09;96217.10;108608;1275;22532;-71
2024/04/19 02:58:03;;;;;;;8.60;6.10;;;;;;;1.74;92.01;96213.98;108574;1268;24287;-71
2024/04/19 03:00:33;;;;;;;9.30;7.50;;;;;;;1.76;91.92;96215.95;108565;1275;22522;-71
2024/04/19 03:03:03;;;;;;;8.10;6.40;;;;;;;1.77;91.96;96214.88;108529;1271;22573;-71
2024/04/19 03:05:34;;;;;;;9.00;6.70;;;;;;;1.78;91.98;96210.30;108549;1269;25258;-71
2024/04/19 03:08:05;;;;;;;8.20;6.30;;;;;;;1.78;91.93;96208.11;108537;1275;22529;-71
2024/04/19 03:10:39;;;;;;;7.30;6.10;;;;;;;1.74;91.68;96205.52;108537;1272;26451;-71
2024/04/19 03:13:11;;;;;;;8.20;6.00;;;;;;;1.71;91.67;96211.42;108574;1269;25353;-71
2024/04/19 03:15:41;;;;;;;8.30;6.60;;;;;;;1.69;91.73;96207.38;108620;1275;24415;-71
2024/04/19 03:18:12;;;;;;;9.20;6.70;;;;;;;1.69;91.75;96209.09;108526;1265;22765;-71
2024/04/19 03:20:42;;;;;;;8.20;6.30;;;;;;;1.69;91.73;96212.95;108606;1272;26876;-71
2024/04/19 03:23:12;;;;;;;7.80;6.30;;;;;;;1.68;91.78;96214.28;108384;1276;336036;-71
2024/04/19 03:25:43;;;;;;;7.90;5.90;;;;;;;1.73;92.10;96210.67;108631;1275;25350;-71
2024/04/19 03:28:13;;;;;;;9.60;6.10;;;;;;;1.79;91.92;96208.89;108590;1268;22534;-71
2024/04/19 03:30:43;;;;;;;8.00;6.20;;;;;;;1.85;92.16;96210.48;108637;1264;22533;-71
2024/04/19 03:33:14;;;;;;;7.30;5.80;;;;;;;1.89;92.10;96207.33;108581;1276;22526;-71
2024/04/19 03:35:44;;;;;;;8.10;6.30;;;;;;;1.92;91.99;96212.17;108592;1268;22950;-71
2024/04/19 03:38:14;;;;;;;7.70;6.00;;;;;;;1.94;92.08;96213.36;108600;1271;25628;-71
2024/04/19 03:40:54;;;;;;;8.30;5.80;;;;;;;1.95;91.70;96213.86;108581;1270;22645;-71
2024/04/19 03:43:24;;;;;;;8.20;5.90;;;;;;;1.96;91.58;96216.42;108645;1275;26333;-71
2024/04/19 03:45:55;;;;;;;9.10;6.60;;;;;;;1.94;91.47;96217.17;108690;1269;22526;-71
2024/04/19 03:48:25;;;;;;;9.20;6.90;;;;;;;1.90;91.42;96216.23;108660;1275;22520;-71
2024/04/19 03:50:56;;;;;;;7.20;5.60;;;;;;;1.86;91.32;96219.45;108594;1275;23042;-71
2024/04/19 03:53:26;;;;;;;8.00;5.90;;;;;;;1.86;91.48;96220.70;108561;1252;22552;-71
2024/04/19 03:55:56;;;;;;;8.10;6.40;;;;;;;1.88;91.56;96220.27;108622;1275;22515;-71
2024/04/19 03:58:27;;;;;;;8.10;6.60;;;;;;;1.89;91.59;96213.01;108637;1272;23536;-71
2024/04/19 04:01:03;;;;;;;8.00;6.00;;;;;;;1.89;91.46;96220.02;108635;1270;23587;-71
2024/04/19 04:03:34;;;;;;;7.60;6.00;;;;;;;1.92;91.54;96219.08;108586;1275;25298;-71
2024/04/19 04:06:05;;;;;;;8.50;6.60;;;;;;;1.95;91.44;96219.40;108627;1275;22526;-71
2024/04/19 04:08:35;;;;;;;7.40;4.90;;;;;;;1.97;91.36;96220.23;108606;1275;22538;-71
2024/04/19 04:11:11;;;;;;;8.30;6.00;;;;;;;1.97;91.25;96217.65;108663;1275;24664;-71
2024/04/19 04:13:42;;;;;;;8.20;6.10;;;;;;;1.96;91.38;96220.40;108649;1275;25298;-71
2024/04/19 04:16:12;;;;;;;10.70;6.60;;;;;;;1.96;91.42;96222.97;108646;1275;22571;-71
2024/04/19 04:18:43;;;;;;;8.60;6.10;;;;;;;1.96;91.51;96223.95;108689;1269;23228;-71
2024/04/19 04:21:13;;;;;;;8.40;6.60;;;;;;;1.96;91.62;96224.54;108612;1276;25369;-71
2024/04/19 04:23:44;;;;;;;8.10;6.00;;;;;;;1.97;91.68;96227.70;108631;1275;26286;-71
2024/04/19 04:26:14;;;;;;;9.10;6.30;;;;;;;2.00;91.79;96225.41;108568;1275;22544;-71
2024/04/19 04:28:44;;;;;;;8.80;5.40;;;;;;;2.00;91.80;96225.10;108616;1271;22516;-71
2024/04/19 04:31:14;;;;;;;7.70;5.90;;;;;;;2.02;91.81;96226.08;108593;1275;24386;-70
2024/04/19 04:33:45;;;;;;;7.70;6.10;;;;;;;2.03;91.78;96228.75;108566;1275;23226;-72
2024/04/19 04:36:15;;;;;;;8.30;5.90;;;;;;;2.04;91.89;96224.01;108627;1272;22534;-71
2024/04/19 04:38:45;;;;;;;8.40;6.10;;;;;;;2.07;91.92;96227.56;108627;1275;22516;-71
2024/04/19 04:41:16;;;;;;;8.10;6.30;;;;;;;2.09;91.84;96228.13;108627;1272;22585;-71
2024/04/19 04:43:46;;;;;;;10.10;6.50;;;;;;;2.10;91.92;96228.39;108630;1275;22726;-71
2024/04/19 04:46:16;;;;;;;9.70;7.70;;;;;;;2.14;92.08;96227.23;108727;1275;22526;-70
2024/04/19 04:48:47;;;;;;;8.30;6.40;;;;;;;2.18;92.04;96228.77;108652;1257;22518;-72
2024/04/19 04:51:17;;;;;;;8.60;6.60;;;;;;;2.33;92.31;96224.64;108672;1274;22542;-71
2024/04/19 04:53:47;;;;;;;9.20;7.10;;;;;;;2.65;92.22;96223.77;108662;1275;23852;-71
2024/04/19 04:56:19;;;;;;;8.20;6.80;;;;;;;2.78;91.52;96226.16;108613;1275;25399;-72
2024/04/19 04:58:50;;;;;;;8.60;6.30;;;;;;;2.89;91.26;96224.61;108590;1275;22587;-71
2024/04/19 05:01:20;;;;;;;7.50;4.90;;;;;;;4.14;91.65;96228.46;108573;1272;23812;-72
2024/04/19 05:03:50;;;;;;;7.70;5.80;;;;;;;5.22;88.55;96225.21;108554;1275;22522;-72
2024/04/19 05:06:21;;;;;;;7.10;6.00;;;;;;;5.81;87.31;96216.96;108594;1275;22568;-72
2024/04/19 05:08:51;;;;;;;6.90;5.30;;;;;;;7.06;86.10;96214.48;108593;1275;22531;-72
2024/04/19 05:11:22;;;;;;;6.70;5.20;;;;;;;7.65;80.72;96209.54;108563;1268;22525;-72
2024/04/19 05:13:52;;;;;;;6.30;5.20;;;;;;;8.12;78.48;96205.86;108534;1275;22524;-72
2024/04/19 05:16:22;;;;;;;7.70;4.60;;;;;;;8.57;74.64;96201.82;108577;1272;22526;-72
2024/04/19 05:18:54;;;;;;;5.70;4.60;;;;;;;8.73;73.07;96204.80;108604;1275;25494;-72
2024/04/19 05:21:24;;;;;;;6.10;5.10;;;;;;;9.16;71.41;96201.35;108577;1269;25415;-72
2024/04/19 05:23:54;;;;;;;6.30;4.80;;;;;;;9.75;70.63;96197.30;108553;1275;22528;-72
2024/04/19 05:26:25;;;;;;;5.30;4.40;;;;;;;10.08;67.65;96197.79;108640;1270;22522;-72
2024/04/19 05:28:55;;;;;;;5.20;4.00;;;;;;;10.43;65.88;96188.02;108564;1275;22599;-72
2024/04/19 05:31:25;;;;;;;4.80;3.90;;;;;;;10.54;63.20;96189.50;108579;1275;26578;-72
2024/04/19 05:33:56;;;;;;;7.50;3.90;;;;;;;10.32;61.14;96190.05;108568;1275;23223;-72
2024/04/19 05:36:26;;;;;;;4.80;3.30;;;;;;;10.12;59.61;96185.83;108564;1271;22536;-73
2024/04/19 05:38:57;;;;;;;4.00;3.20;;;;;;;9.97;59.38;96184.95;108558;1275;22537;-72
2024/04/19 05:41:27;;;;;;;3.70;3.30;;;;;;;10.32;59.60;96185.95;108589;1275;22541;-72
2024/04/19 05:43:57;;;;;;;4.40;3.00;;;;;;;10.93;59.64;96183.16;108545;1275;22542;-72
2024/04/19 05:46:28;;;;;;;4.70;3.60;;;;;;;11.05;56.13;96183.30;108603;1275;22513;-72
2024/04/19 05:48:58;;;;;;;4.20;3.80;;;;;;;11.02;56.85;96179.16;108572;1275;22572;-72
2024/04/19 05:51:28;;;;;;;4.60;3.60;;;;;;;11.77;57.98;96179.23;108614;1275;22943;-72
2024/04/19 05:53:59;;;;;;;4.80;4.30;;;;;;;12.31;56.17;96173.58;108574;1269;25291;-70
2024/04/19 05:56:29;;;;;;;3.80;3.40;;;;;;;12.92;56.12;96179.77;108555;1275;24294;-70
2024/04/19 05:58:59;;;;;;;7.60;5.00;;;;;;;13.46;54.45;96173.65;108561;1273;22541;-70
2024/04/19 06:01:30;;;;;;;4.10;3.60;;;;;;;13.85;53.56;96176.76;108557;1268;22524;-70
2024/04/19 06:04:00;;;;;;;3.50;3.00;;;;;;;14.37;52.59;96174.88;108555;1275;22546;-71
2024/04/19 06:06:31;;;;;;;3.30;2.90;;;;;;;14.45;50.92;96169.09;108574;1271;24251;-71
2024/04/19 06:09:01;;;;;;;4.40;3.20;;;;;;;14.91;51.50;96171.09;108538;1272;22543;-70
2024/04/19 06:11:31;;;;;;;3.30;2.80;;;;;;;15.10;49.42;96168.84;108602;1269;24260;-71
2024/04/19 06:14:02;;;;;;;4.00;3.60;;;;;;;15.42;50.22;96170.19;108564;1272;25485;-70
2024/04/19 06:16:32;;;;;;;4.30;3.30;;;;;;;16.02;47.91;96169.94;108560;1275;22573;-70
2024/04/19 06:19:02;;;;;;;3.90;3.40;;;;;;;15.63;46.85;96172.96;108545;1275;22541;-71
2024/04/19 06:21:33;;;;;;;4.80;3.40;;;;;;;15.61;47.42;96175.10;108620;1275;25445;-71
2024/04/19 06:24:04;;;;;;;3.10;2.70;;;;;;;15.71;47.55;96178.77;108497;1275;22529;-71
2024/04/19 06:26:34;;;;;;;3.00;2.50;;;;;;;15.17;46.07;96181.38;108545;1275;22551;-70
2024/04/19 06:29:05;;;;;;;3.80;2.90;;;;;;;14.15;47.12;96187.60;108617;1275;22533;-71
2024/04/19 06:31:35;;;;;;;3.80;2.50;;;;;;;14.87;46.50;96181.92;108591;1271;25434;-70
2024/04/19 06:34:05;;;;;;;3.60;2.40;;;;;;;13.62;45.31;96182.92;108562;1275;22530;-70
2024/04/19 06:36:36;;;;;;;2.50;2.10;;;;;;;13.24;46.79;96187.41;108568;1275;22529;-70
2024/04/19 06:39:08;;;;;;;2.80;2.60;;;;;;;13.86;47.94;96185.53;108565;1269;22544;-70
2024/04/19 06:41:39;;;;;;;3.20;2.90;;;;;;;14.67;47.03;96180.20;108603;1275;22649;-70
2024/04/19 06:44:09;;;;;;;3.10;2.40;;;;;;;14.87;45.73;96174.88;108539;1270;22529;-70
2024/04/19 06:46:40;;;;;;;2.50;2.10;;;;;;;15.75;45.30;96174.73;108602;1275;22529;-70
2024/04/19 06:49:10;;;;;;;3.90;2.30;;;;;;;16.65;44.60;96167.85;108550;1276;22533;-71
2024/04/19 06:51:41;;;;;;;3.10;2.40;;;;;;;17.72;44.20;96163.00;108588;1272;22530;-71
2024/04/19 06:54:11;;;;;;;2.40;1.90;;;;;;;18.37;42.84;96156.59;108576;1272;22538;-71
2024/04/19 06:56:42;;;;;;;3.70;2.60;;;;;;;18.23;41.00;96155.96;108541;1275;22530;-71
2024/04/19 06:59:12;;;;;;;3.40;2.20;;;;;;;18.49;41.28;96155.65;108590;1272;22593;-71
2024/04/19 07:01:43;;;;;;;2.30;1.80;;;;;;;19.23;41.35;96156.14;108579;1275;22537;-71
2024/04/19 07:04:14;;;;;;;2.60;1.80;;;;;;;19.22;38.38;96162.50;108467;1272;22525;-71
2024/04/19 07:06:44;;;;;;;4.40;2.30;;;;;;;17.83;37.15;96155.55;108593;1271;26613;-71
2024/04/19 07:09:15;;;;;;;2.30;1.90;;;;;;;17.19;39.54;96157.20;108572;1275;22531;-71
2024/04/19 07:11:48;;;;;;;2.30;2.00;;;;;;;17.71;40.40;96153.16;108551;1275;22558;-71
2024/04/19 07:14:20;;;;;;;2.30;2.10;;;;;;;18.82;39.65;96151.36;108575;1272;22534;-71
2024/04/19 07:16:51;;;;;;;3.40;1.90;;;;;;;19.35;39.27;96143.94;108574;1275;22530;-71
2024/04/19 07:19:21;;;;;;;2.50;2.00;;;;;;;20.24;38.15;96144.63;108603;1257;23005;-71
2024/04/19 07:21:51;;;;;;;2.00;1.80;;;;;;;20.37;37.46;96138.66;108564;1269;22525;-71
2024/04/19 07:24:22;;;;;;;2.20;2.00;;;;;;;20.45;36.22;96137.00;108571;1275;25464;-71
2024/04/19 07:26:54;;;;;;;2.40;1.80;;;;;;;20.33;35.25;96135.64;108579;1275;24252;-71
2024/04/19 07:29:24;;;;;;;2.70;1.90;;;;;;;19.37;34.65;96133.55;108530;1269;22562;-71
2024/04/19 07:31:54;;;;;;;2.20;1.70;;;;;;;18.92;36.20;96131.31;108584;1275;23021;-71
2024/04/19 07:34:28;;;;;;;2.00;1.70;;;;;;;19.69;35.39;96128.89;108579;1275;22538;-71
2024/04/19 07:36:58;;;;;;;2.30;1.90;;;;;;;19.05;34.67;96123.19;108601;1275;23328;-71
2024/04/19 07:39:28;;;;;;;2.30;2.10;;;;;;;18.99;35.41;96120.75;108580;1275;22529;-70
2024/04/19 07:42:01;;;;;;;2.10;1.80;;;;;;;19.98;37.01;96124.32;108579;1275;24160;-71
2024/04/19 07:44:31;;;;;;;2.60;2.00;;;;;;;20.54;33.91;96117.55;108580;1275;23337;-71
2024/04/19 07:47:02;;;;;;;2.20;1.80;;;;;;;20.05;33.90;96124.73;108599;1275;22518;-71
2024/04/19 07:49:32;;;;;;;2.00;1.60;;;;;;;19.91;33.02;96114.80;108606;1270;22554;-71
2024/04/19 07:52:03;;;;;;;1.70;1.50;;;;;;;19.82;33.55;96115.06;108599;1275;22523;-71
2024/04/19 07:54:33;;;;;;;1.70;1.40;;;;;;;19.62;33.69;96115.21;108558;1273;25517;-71
2024/04/19 07:57:04;;;;;;;4.60;1.90;;;;;;;19.36;32.94;96112.04;108573;1270;22529;-71
2024/04/19 07:59:34;;;;;;;1.60;1.40;;;;;;;19.88;34.20;96111.80;108530;1275;22619;-71
2024/04/19 08:02:05;;;;;;;2.00;1.80;;;;;;;19.97;33.06;96105.41;108545;1275;22533;-71
2024/04/19 08:04:35;;;;;;;1.80;1.70;;;;;;;20.01;33.46;96100.05;108525;1275;22531;-71
2024/04/19 08:07:06;;;;;;;2.40;1.80;;;;;;;19.73;32.64;96103.26;108589;1275;24232;-71
2024/04/19 08:09:36;;;;;;;2.90;1.50;;;;;;;17.69;33.67;96104.88;108575;1272;24224;-71
2024/04/19 08:12:09;;;;;;;2.70;1.70;;;;;;;15.28;36.15;96105.81;108571;1273;22539;-70
2024/04/19 08:14:40;;;;;;;2.50;1.80;;;;;;;15.71;37.04;96103.02;108640;1270;22537;-71
2024/04/19 08:17:10;;;;;;;2.90;1.60;;;;;;;16.21;36.80;96095.90;108586;1273;22534;-71
2024/04/19 08:19:41;;;;;;;1.60;1.20;;;;;;;16.56;36.99;96102.06;108589;1275;22537;-71
2024/04/19 08:22:11;;;;;;;2.70;1.70;;;;;;;15.11;36.00;96094.59;108541;1270;22642;-71
2024/04/19 08:24:42;;;;;;;1.80;1.60;;;;;;;12.94;38.98;96101.38;108553;1275;24245;-70
2024/04/19 08:27:12;;;;;;;1.60;1.50;;;;;;;12.92;39.85;96096.86;108578;1275;22524;-70
2024/04/19 08:29:43;;;;;;;2.10;1.50;;;;;;;13.05;41.15;96090.23;108618;1274;22773;-70
2024/04/19 08:32:15;;;;;;;1.60;1.50;;;;;;;14.78;38.78;96083.70;108562;1270;22512;-70
2024/04/19 08:34:50;;;;;;;2.50;1.50;;;;;;;14.24;37.89;96085.00;108587;1275;22536;-72
2024/04/19 08:37:21;;;;;;;2.30;1.50;;;;;;;12.14;39.21;96083.59;108577;1275;22534;-72
2024/04/19 08:39:53;;;;;;;2.70;1.40;;;;;;;10.74;41.61;96074.80;108599;1275;22688;-72
2024/04/19 08:42:24;;;;;;;3.90;1.60;;;;;;;9.60;44.20;96082.29;108590;1275;23817;-72
2024/04/19 08:44:57;;;;;;;1.80;1.60;;;;;;;10.58;45.18;96088.29;108552;1275;22537;-73
2024/04/19 08:47:31;;;;;;;2.00;1.60;;;;;;;12.55;44.04;96083.60;108599;1275;22532;-72
2024/04/19 08:50:02;;;;;;;1.90;1.50;;;;;;;12.82;42.63;96082.46;108587;1275;22573;-73
2024/04/19 08:52:33;;;;;;;3.10;1.60;;;;;;;12.53;42.96;96077.52;108569;1274;25247;-72
2024/04/19 08:55:07;;;;;;;1.90;1.50;;;;;;;12.15;44.01;96076.80;108429;1276;25279;-72
2024/04/19 08:57:41;;;;;;;2.30;1.40;;;;;;;13.16;41.76;96072.25;108476;1275;22551;-72
2024/04/19 09:00:14;;;;;;;2.00;1.60;;;;;;;11.60;42.25;96077.33;108446;1276;22542;-72
2024/04/19 09:02:44;;;;;;;2.60;1.20;;;;;;;10.48;43.63;96082.50;108439;1275;23326;-72
2024/04/19 09:05:15;;;;;;;2.20;1.50;;;;;;;9.50;45.48;96083.59;108556;1276;22524;-72
2024/04/19 09:07:45;;;;;;;1.90;1.40;;;;;;;8.90;46.40;96082.09;108536;1270;22561;-72
2024/04/19 09:10:18;;;;;;;1.30;1.00;;;;;;;8.57;47.54;96082.13;108583;1276;22558;-72
2024/04/19 09:12:49;;;;;;;1.40;1.20;;;;;;;8.35;48.57;96080.73;108509;1275;22557;-72
2024/04/19 09:15:20;;;;;;;4.00;1.40;;;;;;;8.19;48.76;96083.45;108590;1275;24506;-72
2024/04/19 09:17:50;;;;;;;1.60;1.20;;;;;;;8.01;48.74;96080.46;108589;1275;22539;-72
2024/04/19 09:20:21;;;;;;;1.40;1.30;;;;;;;7.93;48.96;96084.11;108584;1273;24402;-72
2024/04/19 09:22:51;;;;;;;1.80;1.30;;;;;;;7.72;49.62;96080.91;108544;1273;25266;-72
2024/04/19 09:25:22;;;;;;;2.30;1.40;;;;;;;7.48;50.20;96080.40;108458;1276;22544;-72
2024/04/19 09:27:55;;;;;;;1.50;1.10;;;;;;;7.31;50.59;96081.64;108465;1275;25079;-72
2024/04/19 09:30:27;;;;;;;2.90;1.40;;;;;;;7.25;50.92;96075.23;108519;1271;24258;-75
2024/04/19 09:32:57;;;;;;;3.30;1.40;;;;;;;7.18;51.00;96074.67;108603;1275;22545;-74
2024/04/19 09:35:30;;;;;;;2.80;1.50;;;;;;;7.05;51.08;96071.07;108622;1275;22549;-74
2024/04/19 09:38:02;;;;;;;1.50;1.40;;;;;;;6.91;51.92;96068.17;108613;1275;22537;-74
2024/04/19 09:40:36;;;;;;;4.00;1.80;;;;;;;6.77;52.57;96076.84;108569;1275;22534;-74
2024/04/19 09:43:07;;;;;;;3.20;1.50;;;;;;;6.70;53.63;96079.22;108534;1275;22540;-74
2024/04/19 09:45:43;;;;;;;2.80;1.50;;;;;;;6.69;54.00;96075.11;108596;1272;22583;-74
2024/04/19 09:48:17;;;;;;;2.70;1.70;;;;;;;6.85;54.24;96067.70;108545;1276;22530;-74
2024/04/19 09:50:49;;;;;;;2.30;1.40;;;;;;;7.26;54.45;96066.88;108596;1275;22562;-74
2024/04/19 09:53:27;;;;;;;2.10;1.50;;;;;;;7.95;54.51;96061.09;108507;1275;22526;-74
2024/04/19 09:56:22;;;;;;;3.30;1.70;;;;;;;8.52;54.18;96055.48;108587;1275;24296;-74
2024/04/19 09:58:55;;;;;;;2.60;1.40;;;;;;;8.85;52.95;96044.23;108608;1273;22534;-74
2024/04/19 10:01:26;;;;;;;2.20;1.80;;;;;;;9.07;52.80;96040.34;108591;1275;22539;-74
2024/04/19 10:03:57;;;;;;;2.50;1.50;;;;;;;9.13;52.62;96033.45;108542;1270;24350;-74
2024/04/19 10:06:31;;;;;;;3.10;1.70;;;;;;;9.12;52.78;96030.85;108587;1275;22930;-74
2024/04/19 10:09:08;;;;;;;2.90;1.60;;;;;;;9.13;52.99;96029.96;108567;1270;22543;-72
2024/04/19 10:11:40;;;;;;;2.50;1.30;;;;;;;9.04;51.60;96032.76;108575;1272;22613;-71
2024/04/19 10:14:11;;;;;;;2.40;1.30;;;;;;;8.60;50.02;96027.99;108518;1273;22537;-72
2024/04/19 10:16:42;;;;;;;1.70;1.20;;;;;;;8.32;50.76;96025.39;108592;1276;24444;-74
2024/04/19 10:19:13;;;;;;;2.10;1.10;;;;;;;8.41;50.97;96027.91;108594;1273;22525;-74
2024/04/19 10:21:46;;;;;;;2.50;1.20;;;;;;;8.55;50.87;96016.04;108571;1275;22642;-74
2024/04/19 10:24:22;;;;;;;5.40;1.50;;;;;;;8.56;50.17;96013.55;108505;1275;22604;-74
2024/04/19 10:26:53;;;;;;;1.50;1.10;;;;;;;8.62;50.49;96013.64;108598;1269;22651;-74
2024/04/19 10:29:25;;;;;;;2.00;1.10;;;;;;;8.80;50.01;96010.55;108627;1275;22540;-74
2024/04/19 10:31:57;;;;;;;2.40;1.30;;;;;;;8.85;49.78;96005.52;108603;1275;22557;-74
2024/04/19 10:34:29;;;;;;;1.30;0.90;;;;;;;8.68;48.16;96001.86;108531;1270;22577;-74
2024/04/19 10:36:59;;;;;;;0.90;0.80;;;;;;;8.47;49.02;95997.33;108570;1269;22570;-74
2024/04/19 10:39:31;;;;;;;1.50;1.40;;;;;;;8.52;48.75;95988.55;108579;1269;22538;-74
2024/04/19 10:42:01;;;;;;;1.20;1.00;;;;;;;8.47;48.54;95988.08;108581;1270;22543;-74
2024/04/19 10:44:32;;;;;;;1.50;0.80;;;;;;;8.64;49.12;95975.16;108609;1269;26445;-74
2024/04/19 10:47:04;;;;;;;3.50;1.40;;;;;;;8.76;48.38;95974.66;108583;1275;24390;-74
2024/04/19 10:49:35;;;;;;;2.20;1.00;;;;;;;8.85;47.89;95960.13;108537;1270;22528;-74
2024/04/19 10:52:06;;;;;;;2.50;1.30;;;;;;;8.89;47.92;95963.85;108547;1270;22532;-74
2024/04/19 10:54:37;;;;;;;1.70;1.10;;;;;;;8.94;48.55;95966.27;108563;1269;22572;-75
2024/04/19 10:57:08;;;;;;;1.60;1.10;;;;;;;9.05;49.13;95965.38;108586;1275;22543;-74
2024/04/19 10:59:39;;;;;;;2.10;1.10;;;;;;;9.24;49.52;95961.59;108588;1270;22543;-75
2024/04/19 11:02:10;;;;;;;1.80;1.10;;;;;;;9.37;49.65;95948.66;108509;1269;22638;-74
2024/04/19 11:04:44;;;;;;;1.60;1.10;;;;;;;9.40;48.94;95940.30;108524;1275;22525;-74
2024/04/19 11:07:15;;;;;;;1.40;1.00;;;;;;;9.46;48.70;95938.48;108474;1276;22543;-74
2024/04/19 11:09:45;;;;;;;1.90;1.00;;;;;;;9.44;48.55;95944.77;108541;1275;22535;-74
2024/04/19 11:12:16;;;;;;;1.30;0.90;;;;;;;9.45;48.41;95938.86;108633;1270;23885;-75
2024/04/19 11:14:46;;;;;;;1.70;0.90;;;;;;;9.10;47.66;95933.06;108603;1269;22539;-74
2024/04/19 11:17:17;;;;;;;1.60;0.90;;;;;;;8.89;48.82;95932.45;108611;1276;25269;-74
2024/04/19 11:19:49;;;;;;;2.30;1.40;;;;;;;8.82;48.44;95942.52;108709;1272;22559;-75
2024/04/19 11:22:20;;;;;;;2.50;1.10;;;;;;;8.64;49.30;95941.88;108651;1275;22526;-74
2024/04/19 11:24:53;;;;;;;2.90;1.30;;;;;;;8.00;53.20;95955.67;108552;1275;29278;-74
2024/04/19 11:27:24;;;;;;;1.40;1.20;;;;;;;7.36;56.06;95976.55;108601;1275;24443;-75
2024/04/19 11:29:55;;;;;;;1.80;1.00;;;;;;;6.91;58.15;95978.31;108571;1269;22572;-74
2024/04/19 11:32:27;;;;;;;1.80;1.10;;;;;;;6.53;59.79;95977.11;108503;1267;24267;-74
2024/04/19 11:34:57;;;;;;;1.60;1.50;;;;;;;6.41;61.06;95975.73;108543;1275;22540;-74
2024/04/19 11:38:11;;;;;;;1.60;1.00;;;;;;;6.44;61.92;95972.98;108584;1275;22542;-74
2024/04/19 11:40:43;;;;;;;1.50;1.20;;;;;;;6.73;62.07;95960.30;108329;1277;25363;-75
2024/04/19 11:43:13;;;;;;;3.30;1.50;;;;;;;7.24;61.31;95951.84;108323;1278;22750;-74
2024/04/19 11:45:46;;;;;;;1.80;1.40;;;;;;;7.69;60.16;95941.47;108331;1278;22577;-71
2024/04/19 11:48:25;;;;;;;1.60;1.30;;;;;;;8.15;60.58;95936.23;108234;1278;22532;-71